Time;durP1;ratioP1;P1;durP2;ratioP2;P2;SDS_P1;SDS_P2;PMS_P1;PMS_P2;Temp;Humidity;BMP_temperature;BMP_pressure;BME280_temperature;BME280_humidity;BME280_pressure;Samples;Min_cycle;Max_cycle;Signal;HPM_P1;HPM_P2
2023/02/02 00:01:24;;;;;;;128.00;63.15;;;;;;;1.36;100.00;101098.63;5025695;28;20449;-74
2023/02/02 00:03:50;;;;;;;142.75;71.55;;;;;;;1.38;100.00;101094.25;5022054;28;20497;-74
2023/02/02 00:06:17;;;;;;;145.25;71.32;;;;;;;1.38;100.00;101089.13;5035434;28;20057;-74
2023/02/02 00:08:42;;;;;;;134.32;69.30;;;;;;;1.27;100.00;101093.91;5031107;28;20854;-74
2023/02/02 00:11:08;;;;;;;133.02;69.20;;;;;;;1.22;100.00;101083.03;5032925;28;20076;-74
2023/02/02 00:13:33;;;;;;;143.27;70.40;;;;;;;1.17;100.00;101090.09;5025249;28;20038;-74
2023/02/02 00:16:20;;;;;;;129.68;69.18;;;;;;;1.13;100.00;101088.56;5032557;28;20083;-74
2023/02/02 00:18:45;;;;;;;137.77;67.97;;;;;;;1.25;100.00;101085.44;5034482;28;20030;-74
2023/02/02 00:21:11;;;;;;;119.57;59.55;;;;;;;1.70;100.00;101081.63;5030678;28;20045;-73
2023/02/02 00:23:36;;;;;;;105.18;53.53;;;;;;;2.18;100.00;101086.13;5037356;28;20114;-74
2023/02/02 00:26:02;;;;;;;89.93;47.47;;;;;;;2.35;100.00;101083.56;5033090;28;20037;-74
2023/02/02 00:28:27;;;;;;;86.05;47.05;;;;;;;2.45;100.00;101079.59;5038344;28;20029;-74
2023/02/02 00:30:52;;;;;;;83.20;46.38;;;;;;;2.41;100.00;101082.38;5032216;28;20069;-74
2023/02/02 00:33:18;;;;;;;94.80;49.55;;;;;;;2.26;100.00;101084.84;5038053;28;20121;-74
2023/02/02 00:35:43;;;;;;;99.07;53.40;;;;;;;2.01;100.00;101084.38;5030490;28;20021;-74
2023/02/02 00:38:09;;;;;;;94.60;50.30;;;;;;;1.83;100.00;101082.72;5034796;28;20290;-75
2023/02/02 00:40:34;;;;;;;101.97;54.38;;;;;;;1.61;100.00;101085.47;5032061;28;20045;-74
2023/02/02 00:43:00;;;;;;;104.75;55.22;;;;;;;1.52;100.00;101091.88;5030677;28;20592;-74
2023/02/02 00:45:25;;;;;;;111.18;59.10;;;;;;;1.33;100.00;101083.38;5031246;28;20066;-74
2023/02/02 00:47:51;;;;;;;121.32;59.53;;;;;;;1.24;100.00;101088.91;5031275;28;20481;-74
2023/02/02 00:50:19;;;;;;;118.57;61.33;;;;;;;1.17;100.00;101082.41;5036881;28;20417;-74
2023/02/02 00:52:45;;;;;;;119.13;62.53;;;;;;;1.15;100.00;101079.06;5026281;28;20441;-74
2023/02/02 00:55:12;;;;;;;123.72;65.13;;;;;;;1.12;100.00;101082.59;5034283;28;20037;-74
2023/02/02 00:57:38;;;;;;;140.57;74.18;;;;;;;1.21;100.00;101086.50;5032306;28;20037;-74
2023/02/02 01:00:05;;;;;;;136.77;69.47;;;;;;;1.20;100.00;101089.97;5031000;28;20064;-74
2023/02/02 01:02:32;;;;;;;125.97;62.70;;;;;;;1.11;100.00;101091.19;5030345;28;20477;-74
2023/02/02 01:04:58;;;;;;;131.57;67.72;;;;;;;1.02;100.00;101089.03;5033242;28;20465;-74
2023/02/02 01:07:23;;;;;;;124.45;61.15;;;;;;;1.00;100.00;101089.09;5032446;28;20108;-74
2023/02/02 01:09:49;;;;;;;122.10;63.63;;;;;;;1.12;100.00;101089.47;5029816;28;20087;-74
2023/02/02 01:12:14;;;;;;;121.28;62.95;;;;;;;1.02;100.00;101099.31;5029246;28;20029;-75
2023/02/02 01:14:40;;;;;;;121.40;59.90;;;;;;;1.11;100.00;101096.34;5029369;28;20090;-74
2023/02/02 01:17:05;;;;;;;111.05;60.40;;;;;;;1.07;100.00;101096.53;5026775;28;20013;-73
2023/02/02 01:19:31;;;;;;;104.30;51.17;;;;;;;1.25;100.00;101106.00;5038429;28;20025;-74
2023/02/02 01:21:56;;;;;;;99.10;51.15;;;;;;;1.53;100.00;101098.66;5038917;28;20076;-74
2023/02/02 01:24:21;;;;;;;90.07;47.47;;;;;;;1.84;100.00;101107.50;5040855;28;20484;-74
2023/02/02 01:26:47;;;;;;;86.85;44.17;;;;;;;2.02;100.00;101100.63;5034215;28;20099;-74
2023/02/02 01:29:14;;;;;;;83.78;42.85;;;;;;;2.06;100.00;101107.28;5039864;28;20033;-74
2023/02/02 01:31:41;;;;;;;81.38;42.50;;;;;;;2.16;100.00;101103.38;5041407;28;20040;-74
2023/02/02 01:34:06;;;;;;;80.10;42.30;;;;;;;2.14;100.00;101105.19;5032384;28;20488;-74
2023/02/02 01:36:32;;;;;;;83.57;44.17;;;;;;;2.04;100.00;101094.50;5027419;28;20041;-74
2023/02/02 01:38:57;;;;;;;77.75;42.67;;;;;;;2.08;100.00;101096.03;5032560;28;20033;-74
2023/02/02 01:41:24;;;;;;;75.22;41.53;;;;;;;2.05;100.00;101088.47;5035456;28;20086;-74
2023/02/02 01:43:54;;;;;;;79.43;42.00;;;;;;;2.04;100.00;101096.25;5031005;28;20035;-74
2023/02/02 01:46:31;;;;;;;78.57;42.60;;;;;;;2.01;100.00;101099.78;5036021;28;20029;-74
2023/02/02 01:49:13;;;;;;;75.72;41.00;;;;;;;2.05;100.00;101103.06;5036942;28;20041;-74
2023/02/02 01:51:48;;;;;;;78.85;40.63;;;;;;;2.06;100.00;101107.28;5029943;28;20041;-73
2023/02/02 01:54:31;;;;;;;80.97;42.10;;;;;;;2.08;100.00;101095.19;5030682;28;20152;-74
2023/02/02 01:57:03;;;;;;;79.85;41.53;;;;;;;2.09;100.00;101096.84;5032318;28;20037;-73
2023/02/02 01:59:30;;;;;;;72.03;40.00;;;;;;;2.11;100.00;101090.75;5031253;28;20382;-73
2023/02/02 02:01:56;;;;;;;72.85;40.28;;;;;;;2.05;100.00;101093.59;5032689;28;20037;-74
2023/02/02 02:04:23;;;;;;;75.30;39.00;;;;;;;1.90;100.00;101092.59;5035361;28;20191;-74
2023/02/02 02:06:52;;;;;;;64.60;35.13;;;;;;;1.75;100.00;101095.09;5033992;28;20033;-74
2023/02/02 02:09:18;;;;;;;64.13;35.65;;;;;;;1.54;100.00;101094.34;5032921;28;20483;-74
2023/02/02 02:11:43;;;;;;;67.78;39.55;;;;;;;1.54;100.00;101090.06;5033484;28;20128;-74
2023/02/02 02:17:36;;;;;;;79.53;41.60;;;;;;;1.76;100.00;101094.19;5035605;28;20098;-74
2023/02/02 02:26:40;;;;;;;78.43;43.47;;;;;;;1.96;100.00;101102.59;5038042;28;20047;-74
2023/02/02 02:29:21;;;;;;;71.93;40.70;;;;;;;1.99;100.00;101101.63;5035491;28;20028;-74
2023/02/02 02:32:23;;;;;;;79.57;42.50;;;;;;;2.00;100.00;101101.53;5033806;28;20030;-74
2023/02/02 02:35:14;;;;;;;83.65;43.38;;;;;;;2.08;100.00;101111.44;5034168;28;20495;-74
2023/02/02 02:37:40;;;;;;;78.63;41.22;;;;;;;2.16;100.00;101105.94;5032045;28;20033;-74
2023/02/02 02:40:17;;;;;;;78.45;42.55;;;;;;;2.18;100.00;101093.84;5033385;28;20056;-74
2023/02/02 02:42:48;;;;;;;76.65;41.53;;;;;;;2.21;100.00;101091.94;5033433;28;20033;-73
2023/02/02 02:45:15;;;;;;;74.53;40.20;;;;;;;2.22;100.00;101073.06;5037970;28;20116;-74
2023/02/02 02:47:42;;;;;;;83.43;41.90;;;;;;;2.28;100.00;101077.06;5034810;28;20624;-73
2023/02/02 02:50:09;;;;;;;81.60;42.47;;;;;;;2.30;100.00;101085.53;5033504;28;20033;-74
2023/02/02 02:52:35;;;;;;;82.35;41.95;;;;;;;2.28;100.00;101079.63;5035679;28;20099;-74
2023/02/02 02:55:04;;;;;;;71.97;40.90;;;;;;;2.20;100.00;101084.31;5032048;28;20071;-74
2023/02/02 02:57:57;;;;;;;76.97;42.00;;;;;;;2.11;100.00;101085.59;5033306;28;20036;-74
2023/02/02 03:00:29;;;;;;;80.05;44.83;;;;;;;2.06;100.00;101081.59;5033769;28;20785;-74
2023/02/02 03:03:25;;;;;;;81.57;43.15;;;;;;;1.97;100.00;101082.88;5029811;28;20037;-74
2023/02/02 03:05:55;;;;;;;79.35;45.08;;;;;;;2.00;100.00;101075.00;5028488;28;20411;-74
2023/02/02 03:08:28;;;;;;;83.28;45.65;;;;;;;2.03;100.00;101082.56;5024189;28;20029;-74
2023/02/02 03:10:56;;;;;;;85.22;45.20;;;;;;;2.02;100.00;101064.66;5028043;28;20483;-74
2023/02/02 03:13:22;;;;;;;89.65;46.03;;;;;;;1.99;100.00;101068.19;5026779;28;21242;-74
2023/02/02 03:15:47;;;;;;;76.28;40.67;;;;;;;2.00;100.00;101072.44;5027832;28;20108;-74
2023/02/02 03:18:16;;;;;;;89.50;46.97;;;;;;;2.02;100.00;101075.75;5028786;28;20137;-74
2023/02/02 03:20:43;;;;;;;81.22;43.05;;;;;;;2.07;100.00;101075.53;5026758;28;20041;-74
2023/02/02 03:23:09;;;;;;;87.35;46.42;;;;;;;2.07;100.00;101076.38;5031075;28;20036;-74
2023/02/02 03:25:34;;;;;;;88.60;47.10;;;;;;;2.12;100.00;101087.25;5025189;28;20037;-74
2023/02/02 03:28:00;;;;;;;77.93;44.30;;;;;;;2.14;100.00;101092.31;5029393;28;20032;-74
2023/02/02 03:30:26;;;;;;;90.82;48.38;;;;;;;1.99;100.00;101084.44;5026525;28;20041;-74
2023/02/02 03:32:52;;;;;;;96.90;48.85;;;;;;;1.93;100.00;101092.47;5027055;28;20508;-74
2023/02/02 03:35:19;;;;;;;93.32;51.13;;;;;;;1.86;100.00;101095.44;5025128;28;20021;-74
2023/02/02 03:37:46;;;;;;;92.60;48.83;;;;;;;1.86;100.00;101092.84;5030234;28;20033;-74
2023/02/02 03:40:12;;;;;;;99.70;51.25;;;;;;;1.85;100.00;101093.75;5026641;28;20388;-74
2023/02/02 03:42:38;;;;;;;97.28;50.13;;;;;;;1.85;100.00;101078.34;5026441;28;20033;-74
2023/02/02 03:45:04;;;;;;;92.65;52.13;;;;;;;1.90;100.00;101090.03;5025898;28;20133;-74
2023/02/02 03:47:30;;;;;;;99.20;52.15;;;;;;;2.06;100.00;101087.56;5028438;28;20033;-74
2023/02/02 03:49:56;;;;;;;98.63;53.08;;;;;;;2.14;100.00;101093.16;5027140;28;20033;-74
2023/02/02 03:52:22;;;;;;;98.28;51.72;;;;;;;2.17;100.00;101081.91;5026963;28;20040;-74
2023/02/02 03:54:47;;;;;;;93.43;49.83;;;;;;;2.14;100.00;101079.47;5027100;28;20512;-74
2023/02/02 03:57:13;;;;;;;93.78;50.17;;;;;;;2.14;100.00;101082.88;5028712;28;20034;-74
2023/02/02 03:59:38;;;;;;;99.80;53.38;;;;;;;2.11;100.00;101088.16;5025898;28;20361;-73
2023/02/02 04:02:03;;;;;;;98.88;51.70;;;;;;;2.08;100.00;101095.19;5027963;28;20120;-73
2023/02/02 04:04:29;;;;;;;102.45;55.00;;;;;;;2.01;100.00;101094.66;5024516;28;20042;-74
2023/02/02 04:06:54;;;;;;;94.55;52.13;;;;;;;1.97;100.00;101096.53;5026775;28;20037;-74
2023/02/02 04:09:20;;;;;;;104.70;53.45;;;;;;;1.95;100.00;101094.94;5027212;28;20029;-74
2023/02/02 04:11:45;;;;;;;101.13;52.75;;;;;;;1.96;100.00;101089.75;5024499;28;20064;-74
2023/02/02 04:14:11;;;;;;;103.68;55.58;;;;;;;1.96;100.00;101086.34;5015205;28;20396;-74
2023/02/02 04:16:36;;;;;;;98.55;53.17;;;;;;;1.93;100.00;101099.34;5026848;28;20125;-74
2023/02/02 04:19:05;;;;;;;103.85;54.88;;;;;;;1.92;100.00;101095.09;5024685;28;20044;-74
2023/02/02 04:21:30;;;;;;;99.65;53.33;;;;;;;1.89;100.00;101090.13;5022455;28;20049;-73
2023/02/02 04:23:56;;;;;;;99.07;53.50;;;;;;;1.90;100.00;101096.91;5026813;28;20223;-74
2023/02/02 04:26:24;;;;;;;105.22;54.22;;;;;;;1.97;100.00;101088.84;5025849;28;20041;-74
2023/02/02 04:28:51;;;;;;;95.13;48.65;;;;;;;2.12;100.00;101083.84;5026039;28;20026;-74
2023/02/02 04:31:16;;;;;;;91.88;48.47;;;;;;;2.22;100.00;101083.34;5025218;28;20071;-74
2023/02/02 04:33:42;;;;;;;88.85;48.42;;;;;;;2.28;100.00;101084.78;5024718;28;20073;-74
2023/02/02 04:36:07;;;;;;;93.30;49.33;;;;;;;2.27;100.00;101111.41;5025261;28;20422;-74
2023/02/02 04:38:33;;;;;;;90.00;48.17;;;;;;;2.19;100.00;101098.06;5026701;28;20125;-74
2023/02/02 04:41:04;;;;;;;91.70;48.20;;;;;;;2.11;100.00;101089.91;5029151;28;20029;-74
2023/02/02 04:43:29;;;;;;;94.97;49.55;;;;;;;2.08;100.00;101092.63;5027959;28;20029;-74
2023/02/02 04:45:56;;;;;;;94.80;50.47;;;;;;;2.09;100.00;101086.56;5025087;28;20033;-74
2023/02/02 04:48:21;;;;;;;93.15;50.20;;;;;;;2.07;100.00;101099.50;5026036;28;20033;-74
2023/02/02 04:50:46;;;;;;;100.07;52.38;;;;;;;2.08;100.00;101096.03;5023168;28;20059;-74
2023/02/02 04:53:12;;;;;;;103.18;54.22;;;;;;;2.08;100.00;101078.03;5026582;28;20060;-74
2023/02/02 04:55:37;;;;;;;111.25;56.33;;;;;;;2.09;100.00;101094.28;5026416;28;20559;-74
2023/02/02 04:58:04;;;;;;;104.40;56.60;;;;;;;2.11;100.00;101090.75;5026943;28;20042;-74
2023/02/02 05:00:29;;;;;;;103.93;55.25;;;;;;;2.08;100.00;101093.47;5026083;28;20411;-74
2023/02/02 05:02:55;;;;;;;83.40;48.75;;;;;;;2.11;100.00;101089.91;5025473;28;20033;-74
2023/02/02 05:05:20;;;;;;;92.82;50.58;;;;;;;2.13;100.00;101095.81;5026773;28;20136;-74
2023/02/02 05:07:46;;;;;;;103.72;52.22;;;;;;;2.14;100.00;101100.88;5025904;28;20393;-74
2023/02/02 05:10:11;;;;;;;134.77;64.63;;;;;;;2.17;100.00;101092.19;5028104;28;20497;-74
2023/02/02 05:12:37;;;;;;;128.30;63.80;;;;;;;2.19;100.00;101103.22;5024692;28;20068;-74
2023/02/02 05:15:04;;;;;;;106.00;56.25;;;;;;;2.21;100.00;101102.25;5025576;28;20026;-74
2023/02/02 05:17:30;;;;;;;119.57;64.47;;;;;;;2.22;100.00;101093.63;5026199;28;20044;-74
2023/02/02 05:19:56;;;;;;;118.05;62.42;;;;;;;2.22;100.00;101103.06;5025813;28;20512;-74
2023/02/02 05:22:21;;;;;;;121.30;59.20;;;;;;;2.23;100.00;101099.59;5026364;28;20029;-74
2023/02/02 05:24:47;;;;;;;119.50;62.00;;;;;;;2.25;100.00;101103.75;5022726;28;20037;-74
2023/02/02 05:27:12;;;;;;;108.60;56.45;;;;;;;2.28;100.00;101092.47;5025264;28;20029;-74
2023/02/02 05:29:38;;;;;;;101.15;54.92;;;;;;;2.29;100.00;101107.00;5025239;28;20033;-74
2023/02/02 05:32:03;;;;;;;92.88;49.58;;;;;;;2.31;100.00;101131.75;5026613;28;20058;-74
2023/02/02 05:34:29;;;;;;;78.90;43.80;;;;;;;2.36;100.00;101112.69;5023571;28;20185;-74
2023/02/02 05:36:54;;;;;;;80.45;43.63;;;;;;;2.40;100.00;101127.84;5022600;28;20025;-74
2023/02/02 05:39:19;;;;;;;73.30;40.70;;;;;;;2.44;100.00;101134.50;5025760;28;20159;-73
2023/02/02 05:41:45;;;;;;;75.47;42.05;;;;;;;2.41;100.00;101124.38;5025478;28;20029;-74
2023/02/02 05:44:12;;;;;;;74.68;41.92;;;;;;;2.43;100.00;101134.59;5024449;28;20091;-73
2023/02/02 05:46:37;;;;;;;78.68;43.70;;;;;;;2.49;100.00;101134.28;5026892;28;20161;-74
2023/02/02 05:49:06;;;;;;;75.53;42.08;;;;;;;2.50;100.00;101123.91;5027149;28;20486;-73
2023/02/02 05:51:37;;;;;;;70.18;38.45;;;;;;;2.50;100.00;101128.22;5024115;28;20112;-74
2023/02/02 05:54:03;;;;;;;66.78;37.92;;;;;;;2.50;100.00;101123.91;5025181;28;20037;-73
2023/02/02 05:56:28;;;;;;;65.38;37.17;;;;;;;2.51;100.00;101127.31;5027397;28;20502;-74
2023/02/02 05:58:53;;;;;;;69.15;38.28;;;;;;;2.52;100.00;101110.97;5024921;28;20072;-73
2023/02/02 06:01:20;;;;;;;71.80;40.00;;;;;;;2.54;100.00;101122.84;5024261;28;20053;-74
2023/02/02 06:03:46;;;;;;;67.53;40.30;;;;;;;2.61;100.00;101129.38;5024489;28;20034;-73
2023/02/02 06:06:12;;;;;;;70.65;39.58;;;;;;;2.66;100.00;101108.53;5026246;28;20032;-74
2023/02/02 06:08:37;;;;;;;71.45;39.35;;;;;;;2.68;100.00;101127.31;5024833;28;20465;-74
2023/02/02 06:11:14;;;;;;;74.15;40.00;;;;;;;2.69;100.00;101128.97;5026658;28;20057;-74
2023/02/02 06:13:40;;;;;;;74.03;40.58;;;;;;;2.72;100.00;101120.28;5025432;28;20120;-74
2023/02/02 06:16:06;;;;;;;67.78;40.42;;;;;;;2.75;100.00;101126.09;5023374;28;20540;-74
2023/02/02 06:18:33;;;;;;;71.15;39.38;;;;;;;2.72;100.00;101125.41;5025351;28;20038;-73
2023/02/02 06:20:58;;;;;;;64.28;37.72;;;;;;;2.67;100.00;101128.22;5025794;28;20116;-74
2023/02/02 06:23:24;;;;;;;66.25;36.50;;;;;;;2.62;100.00;101125.03;5023900;28;20112;-74
2023/02/02 06:25:49;;;;;;;66.88;36.63;;;;;;;2.58;100.00;101134.66;5023825;28;20636;-74
2023/02/02 06:28:15;;;;;;;66.38;37.42;;;;;;;2.57;100.00;101134.72;5024616;28;20033;-74
2023/02/02 06:30:40;;;;;;;63.97;38.22;;;;;;;2.57;100.00;101137.31;5024892;28;20391;-74
2023/02/02 06:33:06;;;;;;;69.20;37.00;;;;;;;2.56;100.00;101139.06;5029809;28;20516;-74
2023/02/02 06:35:32;;;;;;;70.57;37.45;;;;;;;2.54;100.00;101128.00;5024651;28;20038;-74
2023/02/02 06:37:58;;;;;;;67.63;37.15;;;;;;;2.54;100.00;101134.88;5027300;28;20013;-74
2023/02/02 06:40:23;;;;;;;68.43;39.40;;;;;;;2.55;100.00;101139.97;5028939;28;20124;-74
2023/02/02 06:42:55;;;;;;;74.15;39.40;;;;;;;2.55;100.00;101131.41;5027006;28;20017;-74
2023/02/02 06:45:20;;;;;;;70.78;39.55;;;;;;;2.61;100.00;101138.81;5028742;28;20037;-74
2023/02/02 06:47:46;;;;;;;82.75;42.63;;;;;;;2.69;100.00;101148.72;5023148;28;20083;-74
2023/02/02 06:50:11;;;;;;;71.30;40.55;;;;;;;2.74;100.00;101151.91;5027789;28;20029;-74
2023/02/02 06:52:37;;;;;;;78.18;41.50;;;;;;;2.78;100.00;101159.38;5026003;28;20033;-74
2023/02/02 06:55:02;;;;;;;74.95;38.63;;;;;;;2.82;100.00;101160.91;5021338;28;20027;-73
2023/02/02 06:57:28;;;;;;;69.88;38.90;;;;;;;2.86;100.00;101164.97;5021922;28;20393;-74
2023/02/02 06:59:53;;;;;;;76.78;40.65;;;;;;;2.90;100.00;101157.91;5024140;28;20041;-73
2023/02/02 07:02:19;;;;;;;72.45;40.25;;;;;;;2.94;100.00;101157.69;5022316;28;20030;-74
2023/02/02 07:04:45;;;;;;;68.15;38.92;;;;;;;2.96;100.00;101158.44;5017472;28;20056;-74
2023/02/02 07:07:10;;;;;;;73.72;40.13;;;;;;;2.99;100.00;101162.59;5021490;28;20045;-74
2023/02/02 07:09:35;;;;;;;65.72;37.78;;;;;;;2.99;100.00;101163.41;5026704;28;20029;-73
2023/02/02 07:12:01;;;;;;;84.78;48.53;;;;;;;3.01;100.00;101158.19;5022058;28;20034;-73
2023/02/02 07:14:26;;;;;;;76.55;43.65;;;;;;;2.99;100.00;101168.56;5022316;28;20041;-74
2023/02/02 07:16:52;;;;;;;75.90;42.10;;;;;;;3.00;100.00;101162.50;5028641;28;20033;-73
2023/02/02 07:19:18;;;;;;;84.93;45.72;;;;;;;3.02;100.00;101159.03;5028720;28;20029;-73
2023/02/02 07:21:43;;;;;;;77.95;43.28;;;;;;;3.04;100.00;101170.91;5027448;28;20051;-73
2023/02/02 07:24:09;;;;;;;70.07;41.22;;;;;;;3.05;100.00;101175.16;5029895;28;20037;-73
2023/02/02 07:26:35;;;;;;;74.57;40.00;;;;;;;3.08;100.00;101171.59;5029282;28;20063;-73
2023/02/02 07:29:00;;;;;;;68.10;37.70;;;;;;;3.11;100.00;101181.72;5028367;28;20141;-73
2023/02/02 07:31:26;;;;;;;72.97;40.92;;;;;;;3.11;100.00;101186.88;5026172;28;20037;-73
2023/02/02 07:33:53;;;;;;;75.10;42.70;;;;;;;3.13;100.00;101180.75;5026120;28;20662;-73
2023/02/02 07:36:22;;;;;;;75.55;40.78;;;;;;;3.19;100.00;101184.75;5026137;28;20059;-73
2023/02/02 07:38:50;;;;;;;84.53;45.40;;;;;;;3.19;100.00;101190.72;5025470;28;20036;-74
2023/02/02 07:41:16;;;;;;;90.57;49.63;;;;;;;3.24;100.00;101198.22;5030308;28;20029;-74
2023/02/02 07:43:42;;;;;;;89.03;49.85;;;;;;;3.29;100.00;101193.66;5025846;28;20045;-74
2023/02/02 07:46:11;;;;;;;85.35;50.33;;;;;;;3.32;100.00;101191.72;5026151;28;20052;-74
2023/02/02 07:48:37;;;;;;;80.57;46.72;;;;;;;3.38;100.00;101189.75;5023476;28;20103;-74
2023/02/02 07:51:06;;;;;;;82.25;46.28;;;;;;;3.41;100.00;101195.56;5024279;28;20096;-74
2023/02/02 07:53:32;;;;;;;77.95;44.90;;;;;;;3.46;100.00;101198.72;5023055;28;20029;-73
2023/02/02 07:56:12;;;;;;;80.18;44.50;;;;;;;3.50;100.00;101195.09;5025581;28;20018;-73
2023/02/02 07:58:40;;;;;;;80.40;41.97;;;;;;;3.57;100.00;101196.41;5025374;28;20033;-74
2023/02/02 08:01:07;;;;;;;66.97;39.90;;;;;;;3.60;100.00;101196.25;5029040;28;20028;-74
2023/02/02 08:03:34;;;;;;;78.05;41.05;;;;;;;3.67;100.00;101196.75;5025192;28;20097;-74
2023/02/02 08:06:00;;;;;;;64.82;39.03;;;;;;;3.71;100.00;101193.13;5027345;28;20044;-75
2023/02/02 08:08:26;;;;;;;65.72;38.42;;;;;;;3.81;100.00;101206.31;5026192;28;20487;-75
2023/02/02 08:10:53;;;;;;;68.53;39.80;;;;;;;3.90;100.00;101219.53;5026147;28;20041;-75
2023/02/02 08:13:19;;;;;;;67.65;40.33;;;;;;;3.82;100.00;101213.13;5027102;28;20472;-76
2023/02/02 08:15:45;;;;;;;64.20;37.67;;;;;;;3.88;100.00;101210.22;5024549;28;20432;-75
2023/02/02 08:18:10;;;;;;;66.45;38.20;;;;;;;3.89;100.00;101212.72;5025495;28;20086;-76
2023/02/02 08:20:36;;;;;;;64.53;37.50;;;;;;;4.00;100.00;101212.97;5024632;28;20180;-76
2023/02/02 08:23:01;;;;;;;71.50;39.53;;;;;;;4.03;100.00;101206.81;5027788;28;20041;-76
2023/02/02 08:25:27;;;;;;;72.75;39.72;;;;;;;4.06;100.00;101198.91;5023880;28;20030;-76
2023/02/02 08:28:00;;;;;;;68.10;38.85;;;;;;;4.07;100.00;101203.16;5023832;28;20117;-75
2023/02/02 08:30:26;;;;;;;67.78;40.45;;;;;;;4.05;100.00;101202.41;5026344;28;20132;-77
2023/02/02 08:32:51;;;;;;;66.63;39.17;;;;;;;4.06;100.00;101210.97;5028018;28;20044;-76
2023/02/02 08:35:18;;;;;;;71.68;41.53;;;;;;;4.06;100.00;101216.94;5026949;28;20034;-77
2023/02/02 08:37:47;;;;;;;67.38;38.28;;;;;;;4.09;100.00;101216.78;5025297;28;20022;-77
2023/02/02 08:40:13;;;;;;;71.15;39.80;;;;;;;4.17;100.00;101208.63;5025036;28;20037;-77
2023/02/02 08:42:38;;;;;;;67.63;40.83;;;;;;;4.21;100.00;101197.22;5031109;28;20052;-76
2023/02/02 08:45:04;;;;;;;66.88;40.15;;;;;;;4.23;100.00;101205.72;5030666;28;20045;-75
2023/02/02 08:47:30;;;;;;;68.57;39.08;;;;;;;4.28;100.00;101208.84;5022133;28;20051;-75
2023/02/02 08:49:55;;;;;;;70.60;40.05;;;;;;;4.34;100.00;101209.31;5033118;28;20099;-75
2023/02/02 08:52:21;;;;;;;67.85;38.67;;;;;;;4.42;100.00;101208.06;5031750;28;20182;-76
2023/02/02 08:54:46;;;;;;;67.35;39.90;;;;;;;4.51;100.00;101203.22;5031989;28;20139;-76
2023/02/02 08:57:11;;;;;;;69.88;41.60;;;;;;;4.60;100.00;101204.44;5029780;28;20356;-75
2023/02/02 08:59:37;;;;;;;70.97;40.70;;;;;;;4.71;100.00;101204.66;5027859;28;20426;-75
2023/02/02 09:02:02;;;;;;;68.93;41.28;;;;;;;4.78;100.00;101199.94;5040614;28;20479;-77
2023/02/02 09:04:28;;;;;;;69.63;40.33;;;;;;;4.81;100.00;101208.34;5034533;28;20078;-77
2023/02/02 09:06:53;;;;;;;72.15;41.40;;;;;;;4.92;100.00;101210.31;5037770;28;20140;-77
2023/02/02 09:09:19;;;;;;;72.95;40.55;;;;;;;5.07;100.00;101216.31;5032711;28;20069;-77
2023/02/02 09:11:44;;;;;;;67.50;40.50;;;;;;;5.14;100.00;101215.03;5041390;28;20074;-78
2023/02/02 09:14:13;;;;;;;72.75;42.08;;;;;;;5.25;100.00;101216.03;5047127;28;20051;-77
2023/02/02 09:16:39;;;;;;;73.18;40.42;;;;;;;5.21;100.00;101211.97;5044159;28;20122;-77
2023/02/02 09:19:04;;;;;;;73.85;40.90;;;;;;;5.30;100.00;101203.66;5036362;28;20025;-77
2023/02/02 09:21:35;;;;;;;70.70;42.10;;;;;;;5.38;100.00;101200.63;5029984;28;20099;-76
2023/02/02 09:24:08;;;;;;;78.43;42.97;;;;;;;5.47;100.00;101217.34;5042235;28;20052;-76
2023/02/02 09:26:34;;;;;;;75.85;43.10;;;;;;;5.56;100.00;101220.19;5033139;28;20029;-76
2023/02/02 09:29:02;;;;;;;75.35;42.55;;;;;;;5.71;99.51;101230.50;5036419;28;20021;-75
2023/02/02 09:31:29;;;;;;;83.45;46.03;;;;;;;5.83;98.64;101214.22;5031139;28;20094;-76
2023/02/02 09:33:59;;;;;;;81.72;45.83;;;;;;;5.92;99.28;101218.84;5033844;28;20453;-75
2023/02/02 09:36:25;;;;;;;80.00;46.22;;;;;;;6.02;98.53;101225.13;5032237;28;20032;-77
2023/02/02 09:38:51;;;;;;;84.28;47.80;;;;;;;6.10;98.68;101228.06;5031588;28;20103;-77
2023/02/02 09:41:35;;;;;;;90.80;47.78;;;;;;;6.12;97.96;101225.38;5035586;28;20021;-77
2023/02/02 09:44:09;;;;;;;83.38;47.40;;;;;;;6.05;97.04;101231.84;5028990;28;20087;-76
2023/02/02 09:46:51;;;;;;;85.43;47.83;;;;;;;6.12;95.96;101231.38;5036845;28;20388;-77
2023/02/02 09:49:24;;;;;;;83.60;48.50;;;;;;;6.11;96.46;101231.47;5031206;28;20033;-77
2023/02/02 09:52:01;;;;;;;81.05;47.47;;;;;;;6.08;95.38;101229.91;5031483;28;20080;-77
2023/02/02 09:54:34;;;;;;;78.40;46.67;;;;;;;6.13;96.02;101227.03;5032960;28;20049;-78
2023/02/02 09:57:07;;;;;;;86.75;50.33;;;;;;;6.24;96.69;101230.56;5025110;28;20065;-77
2023/02/02 09:59:38;;;;;;;83.45;48.75;;;;;;;6.38;96.88;101244.38;5027599;28;20025;-77
2023/02/02 10:02:22;;;;;;;92.63;49.75;;;;;;;6.49;96.32;101242.78;5031979;28;20128;-78
2023/02/02 10:04:53;;;;;;;86.45;49.42;;;;;;;6.55;95.79;101249.31;5028759;28;20030;-77
2023/02/02 10:07:25;;;;;;;95.55;49.53;;;;;;;6.59;95.63;101250.78;5034190;28;20037;-70
2023/02/02 10:10:17;;;;;;;84.90;49.38;;;;;;;6.73;95.10;101258.44;5028836;28;20033;-75
2023/02/02 10:12:59;;;;;;;81.53;49.72;;;;;;;6.73;94.44;101245.50;5027666;28;20041;-75
2023/02/02 10:15:35;;;;;;;84.90;48.85;;;;;;;6.80;95.29;101249.34;5029808;28;20029;-75
2023/02/02 10:18:28;;;;;;;84.53;50.92;;;;;;;6.84;94.35;101245.63;5028127;28;20063;-75
2023/02/02 10:21:10;;;;;;;85.40;50.90;;;;;;;6.82;94.66;101242.31;5029747;28;20119;-74
2023/02/02 10:23:38;;;;;;;81.80;49.67;;;;;;;6.84;95.13;101239.63;5031741;28;20131;-75
2023/02/02 10:26:15;;;;;;;95.35;53.75;;;;;;;6.90;94.62;101234.03;5029487;28;20091;-74
2023/02/02 10:28:41;;;;;;;96.93;53.88;;;;;;;6.91;95.15;101238.28;5030197;28;20037;-75
2023/02/02 10:31:18;;;;;;;88.55;53.45;;;;;;;6.93;94.71;101233.84;5029756;28;20432;-76
2023/02/02 10:33:57;;;;;;;91.95;53.45;;;;;;;6.93;94.03;101233.84;5030788;28;20025;-76
2023/02/02 10:36:31;;;;;;;90.50;53.95;;;;;;;6.91;93.64;101220.97;5031737;28;20033;-67
2023/02/02 10:39:02;;;;;;;86.60;52.55;;;;;;;6.90;93.31;101221.09;5029626;28;20026;-69
2023/02/02 10:42:05;;;;;;;92.53;52.92;;;;;;;6.84;92.25;101219.72;5020982;28;20450;-69
2023/02/02 10:45:14;;;;;;;96.78;54.60;;;;;;;6.73;91.03;101217.00;5022239;28;20512;-70
2023/02/02 10:47:40;;;;;;;95.57;55.08;;;;;;;6.66;93.09;101210.59;5023952;28;20057;-75
2023/02/02 10:50:11;;;;;;;94.85;55.78;;;;;;;6.65;92.14;101206.34;5018356;28;20041;-75
2023/02/02 10:52:40;;;;;;;93.53;55.42;;;;;;;6.72;92.04;101209.34;5029534;28;20460;-75
2023/02/02 10:55:23;;;;;;;92.70;55.38;;;;;;;6.74;91.66;101189.34;5035642;28;20029;-75
2023/02/02 10:58:27;;;;;;;94.50;54.17;;;;;;;6.75;91.90;101194.44;5026067;28;20079;-75
2023/02/02 11:01:02;;;;;;;104.38;55.75;;;;;;;6.84;91.96;101191.25;5023776;28;20456;-75
2023/02/02 11:03:31;;;;;;;86.40;53.30;;;;;;;6.89;91.56;101189.16;5029224;28;20061;-75
2023/02/02 11:08:55;;;;;;;90.78;55.40;;;;;;;6.80;91.58;101194.97;5024090;28;20055;-75
2023/02/02 11:11:31;;;;;;;91.78;56.60;;;;;;;6.87;91.87;101198.81;5025554;28;21572;-75
2023/02/02 11:14:15;;;;;;;93.57;54.33;;;;;;;6.96;91.07;101182.66;5026502;28;20041;-75
2023/02/02 11:16:45;;;;;;;89.50;51.97;;;;;;;7.03;91.19;101182.22;5021938;28;20052;-75
2023/02/02 11:19:18;;;;;;;89.53;53.38;;;;;;;7.03;90.47;101187.41;5011724;28;20400;-75
2023/02/02 11:21:47;;;;;;;88.50;53.47;;;;;;;7.09;89.23;101177.44;5003275;28;20140;-73
2023/02/02 11:24:28;;;;;;;93.45;54.03;;;;;;;7.07;89.34;101163.78;5021722;28;20380;-73
2023/02/02 11:27:01;;;;;;;85.50;49.38;;;;;;;7.13;90.13;101165.09;5026399;28;20029;-73
2023/02/02 11:29:36;;;;;;;86.72;51.80;;;;;;;7.18;89.53;101155.25;5026165;28;20087;-72